Time;durP1;ratioP1;P1;durP2;ratioP2;P2;SDS_P1;SDS_P2;PMS_P1;PMS_P2;Temp;Humidity;BMP_temperature;BMP_pressure;BME280_temperature;BME280_humidity;BME280_pressure;Samples;Min_cycle;Max_cycle;Signal;HPM_P1;HPM_P2
2022/05/03 00:01:16;;;;;;;;;;;;;;;;;;4436155;32;19941;-75
2022/05/03 00:03:41;;;;;;;;;;;;;;;;;;4421541;32;19941;-74
2022/05/03 00:06:06;;;;;;;;;;;;;;;;;;4436888;32;19937;-74
2022/05/03 00:08:31;;;;;;;;;;;;;;;;;;4437462;32;19970;-74
2022/05/03 00:10:56;;;;;;;;;;;;;;;;;;4437338;32;19970;-76
2022/05/03 00:13:21;;;;;;;;;;;;;;;;;;4435403;32;19988;-74
2022/05/03 00:15:47;;;;;;;;;;;;;;;;;;4436123;32;19953;-74
2022/05/03 00:18:12;;;;;;;;;;;;;;;;;;4437701;32;20314;-73
2022/05/03 00:20:37;;;;;;;;;;;;;;;;;;4435666;32;19941;-74
2022/05/03 00:23:02;;;;;;;;;;;;;;;;;;4435869;32;19941;-74
2022/05/03 00:25:27;;;;;;;;;;;;;;;;;;4422228;32;19941;-73
2022/05/03 00:27:52;;;;;;;;;;;;;;;;;;4436148;32;20258;-73
2022/05/03 00:30:17;;;;;;;;;;;;;;;;;;4437331;32;19933;-74
2022/05/03 00:32:42;;;;;;;;;;;;;;;;;;4421841;32;19981;-73
2022/05/03 00:35:09;;;;;;;;;;;;;;;;;;4436866;32;19937;-76
2022/05/03 00:40:19;;;;;;;;;;;;;;;;;;4410560;32;20329;-71
2022/05/03 00:42:45;;;;;;;;;;;;;;;;;;4413022;32;20325;-71
2022/05/03 00:45:10;;;;;;;;;;;;;;;;;;4405766;32;19949;-71
2022/05/03 00:47:35;;;;;;;;;;;;;;;;;;4421124;32;19937;-71
2022/05/03 00:50:00;;;;;;;;;;;;;;;;;;4414842;32;20032;-71
2022/05/03 00:52:25;;;;;;;;;;;;;;;;;;4394147;32;19953;-71
2022/05/03 00:54:50;;;;;;;;;;;;;;;;;;4419214;32;20280;-71
2022/05/03 00:57:15;;;;;;;;;;;;;;;;;;4421195;32;19981;-72
2022/05/03 00:59:40;;;;;;;;;;;;;;;;;;4407668;32;19945;-70
2022/05/03 01:02:05;;;;;;;;;;;;;;;;;;4409966;32;19948;-71
2022/05/03 01:04:31;;;;;;;;;;;;;;;;;;4423285;32;19948;-71
2022/05/03 01:06:59;;;;;;;;;;;;;;;;;;4423341;32;20293;-71
2022/05/03 01:09:24;;;;;;;;;;;;;;;;;;4414909;32;20244;-71
2022/05/03 01:11:49;;;;;;;;;;;;;;;;;;4408128;32;20003;-71
2022/05/03 01:14:14;;;;;;;;;;;;;;;;;;4410429;32;19947;-72
2022/05/03 01:16:39;;;;;;;;;;;;;;;;;;4421434;32;19993;-71
2022/05/03 01:19:04;;;;;;;;;;;;;;;;;;4421659;32;19932;-70
2022/05/03 01:21:29;;;;;;;;;;;;;;;;;;4409193;32;19977;-71
2022/05/03 01:23:54;;;;;;;;;;;;;;;;;;4395779;32;20109;-71
2022/05/03 01:26:19;;;;;;;;;;;;;;;;;;4424039;32;19968;-71
2022/05/03 01:28:45;;;;;;;;;;;;;;;;;;4422293;32;19944;-70
2022/05/03 01:31:10;;;;;;;;;;;;;;;;;;4423741;32;19948;-71
2022/05/03 01:33:35;;;;;;;;;;;;;;;;;;4422211;32;19933;-70
2022/05/03 01:36:00;;;;;;;;;;;;;;;;;;4418138;32;19934;-71
2022/05/03 01:38:28;;;;;;;;;;;;;;;;;;4411779;32;19942;-71
2022/05/03 01:40:53;;;;;;;;;;;;;;;;;;4392715;32;19929;-70
2022/05/03 01:43:18;;;;;;;;;;;;;;;;;;4400271;32;19980;-70
2022/05/03 01:45:43;;;;;;;;;;;;;;;;;;4396561;32;19942;-70
2022/05/03 01:48:08;;;;;;;;;;;;;;;;;;4406636;32;19979;-71
2022/05/03 01:50:34;;;;;;;;;;;;;;;;;;4395520;32;19948;-72
2022/05/03 01:52:59;;;;;;;;;;;;;;;;;;4394008;32;19946;-70
2022/05/03 01:55:24;;;;;;;;;;;;;;;;;;4397790;32;19938;-70
2022/05/03 01:57:49;;;;;;;;;;;;;;;;;;4397763;32;20004;-72
2022/05/03 02:00:14;;;;;;;;;;;;;;;;;;4401455;32;19954;-71
2022/05/03 02:02:39;;;;;;;;;;;;;;;;;;4407573;32;19954;-71
2022/05/03 02:05:04;;;;;;;;;;;;;;;;;;4410599;32;19992;-71
2022/05/03 02:07:30;;;;;;;;;;;;;;;;;;4408193;32;19977;-71
2022/05/03 02:09:55;;;;;;;;;;;;;;;;;;4384882;32;19934;-71
2022/05/03 02:12:20;;;;;;;;;;;;;;;;;;4393250;32;19969;-71
2022/05/03 02:14:45;;;;;;;;;;;;;;;;;;4382562;32;20327;-71
2022/05/03 02:17:10;;;;;;;;;;;;;;;;;;4408969;32;19972;-71
2022/05/03 02:19:35;;;;;;;;;;;;;;;;;;4383124;32;20356;-72
2022/05/03 02:22:01;;;;;;;;;;;;;;;;;;4394842;32;19941;-71
2022/05/03 02:24:26;;;;;;;;;;;;;;;;;;4389066;32;19976;-71
2022/05/03 02:26:51;;;;;;;;;;;;;;;;;;4377964;32;19934;-71
2022/05/03 02:29:16;;;;;;;;;;;;;;;;;;4394075;32;19989;-71
2022/05/03 02:31:41;;;;;;;;;;;;;;;;;;4395991;32;19989;-71
2022/05/03 02:34:06;;;;;;;;;;;;;;;;;;4391506;32;19941;-71
2022/05/03 02:36:31;;;;;;;;;;;;;;;;;;4377766;32;19937;-71
2022/05/03 02:38:56;;;;;;;;;;;;;;;;;;4392778;32;19937;-71
2022/05/03 02:41:21;;;;;;;;;;;;;;;;;;4386126;32;20331;-71
2022/05/03 02:43:47;;;;;;;;;;;;;;;;;;4392342;32;19938;-71
2022/05/03 02:46:12;;;;;;;;;;;;;;;;;;4393353;32;19952;-72
2022/05/03 02:48:38;;;;;;;;;;;;;;;;;;4393369;32;19934;-71
2022/05/03 02:51:03;;;;;;;;;;;;;;;;;;4393517;32;19942;-71
2022/05/03 02:53:29;;;;;;;;;;;;;;;;;;4391955;32;19996;-71
2022/05/03 02:55:54;;;;;;;;;;;;;;;;;;4404875;32;19937;-71
2022/05/03 02:58:19;;;;;;;;;;;;;;;;;;4407064;32;19953;-71
2022/05/03 03:03:28;;;;;;;;;;;;;;;;;;4392172;32;19941;-71
2022/05/03 03:05:53;;;;;;;;;;;;;;;;;;4377271;32;20324;-70
2022/05/03 03:08:21;;;;;;;;;;;;;;;;;;4378357;32;19942;-71
2022/05/03 03:10:46;;;;;;;;;;;;;;;;;;4401260;32;19975;-70
2022/05/03 03:13:11;;;;;;;;;;;;;;;;;;4407177;32;19989;-70
2022/05/03 03:15:37;;;;;;;;;;;;;;;;;;4395683;32;19957;-71
2022/05/03 03:18:02;;;;;;;;;;;;;;;;;;4390935;32;19942;-71
2022/05/03 03:20:27;;;;;;;;;;;;;;;;;;4392610;32;20362;-72
2022/05/03 03:22:52;;;;;;;;;;;;;;;;;;4391787;32;19985;-71
2022/05/03 03:25:17;;;;;;;;;;;;;;;;;;4392746;32;20290;-71
2022/05/03 03:27:42;;;;;;;;;;;;;;;;;;4401624;32;19967;-71
2022/05/03 03:30:07;;;;;;;;;;;;;;;;;;4391235;32;20308;-72
2022/05/03 03:32:33;;;;;;;;;;;;;;;;;;4393293;32;19941;-70
2022/05/03 03:34:58;;;;;;;;;;;;;;;;;;4407434;32;19933;-71
2022/05/03 03:37:23;;;;;;;;;;;;;;;;;;4406036;32;19971;-70
2022/05/03 03:39:48;;;;;;;;;;;;;;;;;;4403367;32;19948;-70
2022/05/03 03:42:13;;;;;;;;;;;;;;;;;;4400391;32;20337;-70
2022/05/03 03:44:38;;;;;;;;;;;;;;;;;;4397416;32;19993;-71
2022/05/03 03:47:03;;;;;;;;;;;;;;;;;;4407015;32;19949;-71
2022/05/03 03:49:28;;;;;;;;;;;;;;;;;;4406262;32;19964;-71
2022/05/03 03:51:54;;;;;;;;;;;;;;;;;;4404619;32;19937;-70
2022/05/03 03:54:19;;;;;;;;;;;;;;;;;;4400218;32;19945;-71
2022/05/03 03:56:44;;;;;;;;;;;;;;;;;;4390843;32;20275;-71
2022/05/03 03:59:09;;;;;;;;;;;;;;;;;;4392333;32;19938;-70
2022/05/03 04:01:34;;;;;;;;;;;;;;;;;;4392079;32;20337;-71
2022/05/03 04:03:59;;;;;;;;;;;;;;;;;;4390613;32;19950;-71
2022/05/03 04:06:24;;;;;;;;;;;;;;;;;;4388433;32;19954;-70
2022/05/03 04:08:49;;;;;;;;;;;;;;;;;;4405727;32;19993;-70
2022/05/03 04:11:15;;;;;;;;;;;;;;;;;;4405737;32;19980;-70
2022/05/03 04:13:40;;;;;;;;;;;;;;;;;;4405082;32;19952;-70
2022/05/03 04:16:05;;;;;;;;;;;;;;;;;;4396615;32;19950;-70
2022/05/03 04:18:44;;;;;;;;;;;;;;;;;;4399886;32;19969;-70
2022/05/03 04:21:09;;;;;;;;;;;;;;;;;;4406641;32;19934;-71
2022/05/03 04:23:34;;;;;;;;;;;;;;;;;;4404806;32;20315;-71
2022/05/03 04:25:59;;;;;;;;;;;;;;;;;;4390947;32;19949;-70
2022/05/03 04:28:24;;;;;;;;;;;;;;;;;;4391629;32;19952;-71
2022/05/03 04:30:49;;;;;;;;;;;;;;;;;;4391957;32;20302;-71
2022/05/03 04:33:14;;;;;;;;;;;;;;;;;;4387970;32;19938;-71
2022/05/03 04:35:39;;;;;;;;;;;;;;;;;;4406330;32;19973;-70
2022/05/03 04:38:04;;;;;;;;;;;;;;;;;;4405775;32;20324;-70
2022/05/03 04:40:29;;;;;;;;;;;;;;;;;;4387428;32;19973;-71
2022/05/03 04:42:54;;;;;;;;;;;;;;;;;;4390956;32;19945;-71
2022/05/03 04:45:20;;;;;;;;;;;;;;;;;;4393888;32;20336;-70
2022/05/03 04:47:45;;;;;;;;;;;;;;;;;;4405272;32;19987;-71
2022/05/03 04:50:11;;;;;;;;;;;;;;;;;;4403757;32;19976;-72
2022/05/03 04:52:36;;;;;;;;;;;;;;;;;;4405896;32;19949;-71
2022/05/03 04:55:02;;;;;;;;;;;;;;;;;;4401922;32;19933;-71
2022/05/03 04:57:27;;;;;;;;;;;;;;;;;;4391880;32;19947;-71
2022/05/03 04:59:52;;;;;;;;;;;;;;;;;;4404933;32;19982;-71
2022/05/03 05:02:17;;;;;;;;;;;;;;;;;;4391467;32;19937;-71
2022/05/03 05:04:42;;;;;;;;;;;;;;;;;;4406107;32;19941;-71
2022/05/03 05:07:07;;;;;;;;;;;;;;;;;;4404922;32;19937;-71
2022/05/03 05:09:32;;;;;;;;;;;;;;;;;;4390258;32;19949;-71
2022/05/03 05:11:57;;;;;;;;;;;;;;;;;;4400241;32;19961;-71
2022/05/03 05:14:23;;;;;;;;;;;;;;;;;;4404766;32;20308;-70
2022/05/03 05:16:48;;;;;;;;;;;;;;;;;;4403159;32;19938;-70
2022/05/03 05:19:13;;;;;;;;;;;;;;;;;;4404175;32;20015;-70
2022/05/03 05:21:38;;;;;;;;;;;;;;;;;;4405381;32;20310;-70
2022/05/03 05:24:03;;;;;;;;;;;;;;;;;;4407044;32;19979;-71
2022/05/03 05:26:29;;;;;;;;;;;;;;;;;;4402894;32;19964;-71
2022/05/03 05:28:54;;;;;;;;;;;;;;;;;;4380348;32;19944;-71
2022/05/03 05:31:19;;;;;;;;;;;;;;;;;;4398628;32;19984;-71
2022/05/03 05:33:44;;;;;;;;;;;;;;;;;;4392729;32;19985;-71
2022/05/03 05:36:09;;;;;;;;;;;;;;;;;;4393169;32;19997;-71
2022/05/03 05:38:34;;;;;;;;;;;;;;;;;;4393040;32;19989;-71
2022/05/03 05:40:59;;;;;;;;;;;;;;;;;;4393853;32;19973;-71
2022/05/03 05:43:25;;;;;;;;;;;;;;;;;;4379142;32;19942;-71
2022/05/03 05:45:50;;;;;;;;;;;;;;;;;;4395885;32;20007;-71
2022/05/03 05:48:15;;;;;;;;;;;;;;;;;;4394497;32;20296;-71
2022/05/03 05:50:41;;;;;;;;;;;;;;;;;;4379933;32;19988;-71
2022/05/03 05:55:49;;;;;;;;;;;;;;;;;;4393390;32;20463;-71
2022/05/03 05:58:14;;;;;;;;;;;;;;;;;;4393946;32;20324;-71
2022/05/03 06:00:40;;;;;;;;;;;;;;;;;;4378826;32;19972;-71
2022/05/03 06:03:05;;;;;;;;;;;;;;;;;;4393374;32;20059;-72
2022/05/03 06:05:31;;;;;;;;;;;;;;;;;;4377906;32;19982;-72
2022/05/03 06:07:56;;;;;;;;;;;;;;;;;;4379117;32;19929;-71
2022/05/03 06:10:21;;;;;;;;;;;;;;;;;;4377852;32;19964;-71
2022/05/03 06:12:47;;;;;;;;;;;;;;;;;;4392637;32;19953;-70
2022/05/03 06:15:12;;;;;;;;;;;;;;;;;;4392063;32;19938;-70
2022/05/03 06:17:40;;;;;;;;;;;;;;;;;;4391653;32;19948;-70
2022/05/03 06:20:05;;;;;;;;;;;;;;;;;;4384060;32;20360;-70
2022/05/03 06:22:30;;;;;;;;;;;;;;;;;;4408870;32;20326;-70
2022/05/03 06:24:55;;;;;;;;;;;;;;;;;;4408485;32;19937;-69
2022/05/03 06:27:21;;;;;;;;;;;;;;;;;;4408937;32;19964;-70
2022/05/03 06:29:46;;;;;;;;;;;;;;;;;;4408941;32;19949;-70
2022/05/03 06:32:12;;;;;;;;;;;;;;;;;;4393235;32;19956;-70
2022/05/03 06:34:37;;;;;;;;;;;;;;;;;;4408901;32;20317;-70
2022/05/03 06:37:02;;;;;;;;;;;;;;;;;;4408555;32;19938;-71
2022/05/03 06:39:27;;;;;;;;;;;;;;;;;;4406275;32;19983;-70
2022/05/03 06:41:52;;;;;;;;;;;;;;;;;;4406644;32;19997;-71
2022/05/03 06:44:18;;;;;;;;;;;;;;;;;;4406829;32;20308;-71
2022/05/03 06:46:43;;;;;;;;;;;;;;;;;;4408483;32;19941;-71
2022/05/03 06:49:10;;;;;;;;;;;;;;;;;;4390825;32;19946;-72
2022/05/03 06:51:35;;;;;;;;;;;;;;;;;;4377237;32;19934;-70
2022/05/03 06:54:02;;;;;;;;;;;;;;;;;;4391168;32;19984;-71
2022/05/03 06:56:27;;;;;;;;;;;;;;;;;;4377332;32;19934;-70
2022/05/03 06:58:52;;;;;;;;;;;;;;;;;;4403500;32;20346;-71
2022/05/03 07:01:17;;;;;;;;;;;;;;;;;;4408009;32;20307;-71
2022/05/03 07:03:42;;;;;;;;;;;;;;;;;;4405582;32;19954;-71
2022/05/03 07:06:07;;;;;;;;;;;;;;;;;;4407836;32;20209;-71
2022/05/03 07:08:32;;;;;;;;;;;;;;;;;;4407265;32;19934;-70
2022/05/03 07:10:57;;;;;;;;;;;;;;;;;;4393742;32;19971;-70
2022/05/03 07:13:25;;;;;;;;;;;;;;;;;;4406547;32;19934;-69
2022/05/03 07:15:50;;;;;;;;;;;;;;;;;;4406177;32;19937;-69
2022/05/03 07:23:43;;;;;;;;;;;;;;;;;;4390465;32;19960;-70
2022/05/03 07:26:09;;;;;;;;;;;;;;;;;;4392401;32;19942;-69
2022/05/03 07:28:34;;;;;;;;;;;;;;;;;;4378541;32;20308;-69
2022/05/03 07:30:59;;;;;;;;;;;;;;;;;;4391611;32;19971;-69
2022/05/03 07:33:24;;;;;;;;;;;;;;;;;;4376537;32;19952;-71
2022/05/03 07:35:49;;;;;;;;;;;;;;;;;;4377840;32;20332;-70
2022/05/03 07:38:14;;;;;;;;;;;;;;;;;;4391614;32;19934;-71
2022/05/03 07:40:39;;;;;;;;;;;;;;;;;;4376381;32;19950;-70
2022/05/03 07:43:05;;;;;;;;;;;;;;;;;;4392245;32;19948;-71
2022/05/03 07:45:30;;;;;;;;;;;;;;;;;;4390649;32;19966;-69
2022/05/03 07:47:55;;;;;;;;;;;;;;;;;;4378108;32;19960;-70
2022/05/03 07:50:20;;;;;;;;;;;;;;;;;;4401240;32;19948;-70
2022/05/03 07:52:45;;;;;;;;;;;;;;;;;;4378207;32;20312;-71
2022/05/03 07:55:11;;;;;;;;;;;;;;;;;;4378165;32;19956;-70
2022/05/03 07:57:36;;;;;;;;;;;;;;;;;;4391929;32;19944;-71
2022/05/03 08:00:01;;;;;;;;;;;;;;;;;;4390981;32;19968;-70
2022/05/03 08:02:26;;;;;;;;;;;;;;;;;;4391568;32;19949;-70
2022/05/03 08:04:51;;;;;;;;;;;;;;;;;;4390629;32;19949;-71
2022/05/03 08:07:16;;;;;;;;;;;;;;;;;;4375814;32;20005;-71
2022/05/03 08:09:41;;;;;;;;;;;;;;;;;;4390733;32;19971;-70
2022/05/03 08:12:06;;;;;;;;;;;;;;;;;;4390431;32;19937;-70
2022/05/03 08:14:31;;;;;;;;;;;;;;;;;;4378086;32;19937;-70
2022/05/03 08:16:56;;;;;;;;;;;;;;;;;;4390094;32;19938;-70
2022/05/03 08:19:22;;;;;;;;;;;;;;;;;;4400589;32;19946;-70
2022/05/03 08:21:47;;;;;;;;;;;;;;;;;;4392078;32;19952;-70
2022/05/03 08:24:12;;;;;;;;;;;;;;;;;;4406378;32;19934;-70
2022/05/03 08:26:37;;;;;;;;;;;;;;;;;;4397123;32;19953;-70
2022/05/03 08:29:02;;;;;;;;;;;;;;;;;;4406645;32;19971;-70
2022/05/03 08:31:28;;;;;;;;;;;;;;;;;;4404785;32;19948;-69
2022/05/03 08:33:53;;;;;;;;;;;;;;;;;;4399693;32;19953;-70
2022/05/03 08:36:18;;;;;;;;;;;;;;;;;;4390663;32;19989;-70
2022/05/03 08:44:11;;;;;;;;;;;;;;;;;;4388560;32;19968;-71
2022/05/03 08:46:36;;;;;;;;;;;;;;;;;;4391425;32;20275;-71
2022/05/03 08:49:05;;;;;;;;;;;;;;;;;;4391400;32;19941;-72
2022/05/03 08:51:30;;;;;;;;;;;;;;;;;;4391200;32;19991;-71
2022/05/03 08:53:55;;;;;;;;;;;;;;;;;;4389976;32;19937;-72
2022/05/03 08:56:20;;;;;;;;;;;;;;;;;;4389832;32;19988;-71
2022/05/03 08:58:46;;;;;;;;;;;;;;;;;;4391769;32;20045;-71
2022/05/03 09:01:11;;;;;;;;;;;;;;;;;;4379642;32;19948;-72
2022/05/03 09:03:37;;;;;;;;;;;;;;;;;;4392259;32;20024;-70
2022/05/03 09:06:03;;;;;;;;;;;;;;;;;;4392595;32;19938;-71
2022/05/03 09:08:28;;;;;;;;;;;;;;;;;;4393883;32;19972;-70
2022/05/03 09:10:53;;;;;;;;;;;;;;;;;;4392205;32;19984;-70
2022/05/03 09:13:18;;;;;;;;;;;;;;;;;;4392353;32;19938;-70
2022/05/03 09:15:44;;;;;;;;;;;;;;;;;;4379577;32;20282;-70
2022/05/03 09:18:09;;;;;;;;;;;;;;;;;;4392824;32;19942;-71
2022/05/03 09:26:02;;;;;;;;;;;;;;;;;;4400434;32;20329;-70
2022/05/03 09:28:28;;;;;;;;;;;;;;;;;;4407074;32;19941;-70
2022/05/03 09:30:53;;;;;;;;;;;;;;;;;;4408561;32;19942;-70
2022/05/03 09:33:18;;;;;;;;;;;;;;;;;;4403204;32;19974;-70
2022/05/03 09:35:43;;;;;;;;;;;;;;;;;;4393994;32;19934;-70
2022/05/03 09:38:08;;;;;;;;;;;;;;;;;;4406815;32;19938;-71
2022/05/03 09:40:33;;;;;;;;;;;;;;;;;;4405778;32;19953;-70
2022/05/03 09:42:59;;;;;;;;;;;;;;;;;;4405993;32;20004;-71
2022/05/03 09:45:24;;;;;;;;;;;;;;;;;;4397153;32;19966;-70
2022/05/03 09:47:49;;;;;;;;;;;;;;;;;;4402894;32;19953;-70
2022/05/03 09:50:14;;;;;;;;;;;;;;;;;;4406686;32;19951;-70
2022/05/03 09:52:41;;;;;;;;;;;;;;;;;;4408207;32;20024;-71
2022/05/03 09:55:06;;;;;;;;;;;;;;;;;;4405862;32;19989;-70
2022/05/03 09:57:31;;;;;;;;;;;;;;;;;;4393612;32;19952;-70
2022/05/03 09:59:57;;;;;;;;;;;;;;;;;;4405904;32;19988;-70
2022/05/03 10:02:22;;;;;;;;;;;;;;;;;;4398984;32;19945;-71
2022/05/03 10:04:47;;;;;;;;;;;;;;;;;;4407494;32;19934;-70
2022/05/03 10:07:12;;;;;;;;;;;;;;;;;;4405895;32;19983;-70
2022/05/03 10:09:37;;;;;;;;;;;;;;;;;;4406824;32;19950;-70
2022/05/03 10:12:03;;;;;;;;;;;;;;;;;;4398466;32;19948;-71
2022/05/03 10:14:28;;;;;;;;;;;;;;;;;;4408394;32;19947;-71
2022/05/03 10:22:22;;;;;;;;;;;;;;;;;;4405454;32;19979;-71
2022/05/03 10:24:47;;;;;;;;;;;;;;;;;;4405748;32;20216;-70
2022/05/03 10:27:12;;;;;;;;;;;;;;;;;;4402999;32;20341;-71
2022/05/03 10:29:37;;;;;;;;;;;;;;;;;;4391689;32;19946;-71
2022/05/03 10:32:03;;;;;;;;;;;;;;;;;;4403199;32;20379;-69
2022/05/03 10:34:28;;;;;;;;;;;;;;;;;;4405977;32;20286;-70
2022/05/03 10:36:53;;;;;;;;;;;;;;;;;;4407383;32;19941;-71
2022/05/03 10:39:18;;;;;;;;;;;;;;;;;;4405779;32;19934;-70
2022/05/03 10:41:43;;;;;;;;;;;;;;;;;;4404283;32;19966;-69
2022/05/03 10:44:08;;;;;;;;;;;;;;;;;;4392485;32;19966;-71
2022/05/03 10:46:33;;;;;;;;;;;;;;;;;;4405101;32;19985;-70
2022/05/03 10:48:58;;;;;;;;;;;;;;;;;;4407387;32;19963;-71
2022/05/03 10:51:23;;;;;;;;;;;;;;;;;;4403589;32;19949;-71
2022/05/03 10:53:50;;;;;;;;;;;;;;;;;;4406898;32;19971;-71
2022/05/03 10:56:18;;;;;;;;;;;;;;;;;;4404375;32;20001;-70
2022/05/03 10:58:43;;;;;;;;;;;;;;;;;;4397666;32;19959;-70
2022/05/03 11:01:08;;;;;;;;;;;;;;;;;;4403528;32;19941;-71
2022/05/03 11:03:34;;;;;;;;;;;;;;;;;;4405239;32;19946;-71
2022/05/03 11:05:59;;;;;;;;;;;;;;;;;;4390942;32;20282;-70
2022/05/03 11:08:24;;;;;;;;;;;;;;;;;;4404575;32;19941;-71
2022/05/03 11:10:49;;;;;;;;;;;;;;;;;;4398621;32;19968;-69
2022/05/03 11:13:14;;;;;;;;;;;;;;;;;;4406321;32;19937;-69
2022/05/03 11:15:39;;;;;;;;;;;;;;;;;;4406179;32;19938;-69
2022/05/03 11:18:04;;;;;;;;;;;;;;;;;;4405802;32;19983;-70
2022/05/03 11:20:29;;;;;;;;;;;;;;;;;;4383514;32;19994;-69
2022/05/03 11:22:54;;;;;;;;;;;;;;;;;;4402215;32;20008;-69
2022/05/03 11:25:19;;;;;;;;;;;;;;;;;;4408171;32;19948;-70
2022/05/03 11:27:45;;;;;;;;;;;;;;;;;;4389452;32;19948;-71
2022/05/03 11:30:10;;;;;;;;;;;;;;;;;;4405925;32;19977;-71
2022/05/03 11:32:37;;;;;;;;;;;;;;;;;;4405723;32;20236;-70
2022/05/03 11:35:02;;;;;;;;;;;;;;;;;;4403969;32;19987;-70
2022/05/03 11:37:27;;;;;;;;;;;;;;;;;;4392290;32;19981;-70
2022/05/03 11:39:52;;;;;;;;;;;;;;;;;;4404456;32;19942;-70
2022/05/03 11:42:18;;;;;;;;;;;;;;;;;;4406206;32;19948;-70
2022/05/03 11:44:43;;;;;;;;;;;;;;;;;;4407291;32;20020;-70
2022/05/03 11:47:08;;;;;;;;;;;;;;;;;;4406566;32;19937;-70
2022/05/03 11:49:36;;;;;;;;;;;;;;;;;;4400736;32;19995;-70
2022/05/03 11:57:29;;;;;;;;;;;;;;;;;;4403236;32;19949;-70
2022/05/03 11:59:55;;;;;;;;;;;;;;;;;;4403393;32;19945;-69
2022/05/03 12:02:20;;;;;;;;;;;;;;;;;;4406071;32;20400;-69
2022/05/03 12:04:45;;;;;;;;;;;;;;;;;;4405594;32;19933;-69
2022/05/03 12:07:10;;;;;;;;;;;;;;;;;;4395077;32;20011;-69
2022/05/03 12:09:35;;;;;;;;;;;;;;;;;;4390881;32;19938;-69
2022/05/03 12:14:44;;;;;;;;;;;;;;;;;;4390407;32;19944;-70
2022/05/03 12:17:09;;;;;;;;;;;;;;;;;;4390286;32;19954;-72
2022/05/03 12:19:35;;;;;;;;;;;;;;;;;;4403582;32;19969;-70
2022/05/03 12:22:01;;;;;;;;;;;;;;;;;;4405979;32;20285;-69
2022/05/03 12:24:26;;;;;;;;;;;;;;;;;;4406084;32;20309;-70
2022/05/03 12:26:51;;;;;;;;;;;;;;;;;;4403622;32;20323;-69
2022/05/03 12:29:16;;;;;;;;;;;;;;;;;;4405074;32;19933;-70
2022/05/03 12:31:43;;;;;;;;;;;;;;;;;;4388334;32;19937;-70
2022/05/03 12:34:08;;;;;;;;;;;;;;;;;;4408037;32;20366;-70
2022/05/03 12:36:33;;;;;;;;;;;;;;;;;;4390438;32;20323;-70
2022/05/03 12:38:58;;;;;;;;;;;;;;;;;;4408023;32;19937;-70
2022/05/03 12:41:23;;;;;;;;;;;;;;;;;;4406619;32;19952;-70
2022/05/03 12:43:48;;;;;;;;;;;;;;;;;;4393703;32;20020;-70
2022/05/03 12:46:14;;;;;;;;;;;;;;;;;;4406130;32;19987;-69
2022/05/03 12:48:39;;;;;;;;;;;;;;;;;;4401364;32;19946;-70
2022/05/03 12:51:04;;;;;;;;;;;;;;;;;;4382106;32;19999;-70
2022/05/03 12:53:29;;;;;;;;;;;;;;;;;;4408369;32;19963;-69
2022/05/03 12:55:54;;;;;;;;;;;;;;;;;;4408017;32;19934;-70
2022/05/03 12:58:22;;;;;;;;;;;;;;;;;;4407049;32;19941;-71
2022/05/03 13:00:47;;;;;;;;;;;;;;;;;;4407820;32;19977;-70
2022/05/03 13:03:12;;;;;;;;;;;;;;;;;;4392636;32;19941;-70
2022/05/03 13:05:38;;;;;;;;;;;;;;;;;;4407764;32;19944;-71
2022/05/03 13:08:03;;;;;;;;;;;;;;;;;;4406254;32;20312;-69
2022/05/03 13:10:28;;;;;;;;;;;;;;;;;;4408728;32;19938;-69
2022/05/03 13:12:53;;;;;;;;;;;;;;;;;;4401330;32;19969;-69
2022/05/03 13:15:18;;;;;;;;;;;;;;;;;;4407237;32;19969;-70
2022/05/03 13:17:43;;;;;;;;;;;;;;;;;;4381697;32;19994;-70
2022/05/03 13:20:08;;;;;;;;;;;;;;;;;;4401554;32;19965;-70
2022/05/03 13:22:33;;;;;;;;;;;;;;;;;;4404857;32;19988;-70
2022/05/03 13:24:59;;;;;;;;;;;;;;;;;;4406502;32;19972;-71
2022/05/03 13:27:24;;;;;;;;;;;;;;;;;;4390678;32;19992;-70
2022/05/03 13:29:49;;;;;;;;;;;;;;;;;;4400748;32;19973;-71
2022/05/03 13:32:14;;;;;;;;;;;;;;;;;;4396282;32;20392;-69
2022/05/03 13:34:39;;;;;;;;;;;;;;;;;;4393417;32;19937;-69
2022/05/03 13:42:32;;;;;;;;;;;;;;;;;;4408912;32;19963;-69
2022/05/03 13:44:57;;;;;;;;;;;;;;;;;;4407408;32;19941;-69
2022/05/03 13:47:23;;;;;;;;;;;;;;;;;;4387810;32;19937;-69
2022/05/03 13:49:48;;;;;;;;;;;;;;;;;;4380211;32;19948;-69
2022/05/03 13:52:13;;;;;;;;;;;;;;;;;;4407508;32;19942;-69
2022/05/03 13:54:39;;;;;;;;;;;;;;;;;;4424101;32;19951;-69
2022/05/03 13:57:04;;;;;;;;;;;;;;;;;;4423196;32;20010;-72
2022/05/03 13:59:29;;;;;;;;;;;;;;;;;;4423095;32;20274;-69
2022/05/03 14:01:54;;;;;;;;;;;;;;;;;;4424621;32;19962;-69
2022/05/03 14:04:19;;;;;;;;;;;;;;;;;;4412973;32;19960;-71
2022/05/03 14:06:44;;;;;;;;;;;;;;;;;;4408565;32;19941;-70
2022/05/03 14:09:09;;;;;;;;;;;;;;;;;;4406199;32;19953;-70
2022/05/03 14:11:34;;;;;;;;;;;;;;;;;;4404019;32;19992;-71
2022/05/03 14:13:59;;;;;;;;;;;;;;;;;;4406254;32;19945;-71
2022/05/03 14:16:24;;;;;;;;;;;;;;;;;;4400084;32;19946;-71
2022/05/03 14:18:49;;;;;;;;;;;;;;;;;;4400060;32;20282;-69
2022/05/03 14:21:15;;;;;;;;;;;;;;;;;;4408605;32;19966;-71
2022/05/03 14:23:40;;;;;;;;;;;;;;;;;;4408140;32;19934;-69
2022/05/03 14:26:06;;;;;;;;;;;;;;;;;;4390050;32;20282;-70
2022/05/03 14:28:32;;;;;;;;;;;;;;;;;;4392951;32;19941;-69
2022/05/03 14:30:57;;;;;;;;;;;;;;;;;;4391940;32;19949;-70
2022/05/03 14:33:22;;;;;;;;;;;;;;;;;;4391281;32;19946;-69
2022/05/03 14:35:47;;;;;;;;;;;;;;;;;;4391744;32;19981;-70
2022/05/03 14:38:12;;;;;;;;;;;;;;;;;;4377492;32;19956;-71
2022/05/03 14:40:37;;;;;;;;;;;;;;;;;;4377763;32;19945;-69
2022/05/03 14:43:02;;;;;;;;;;;;;;;;;;4392107;32;19948;-70
2022/05/03 14:45:27;;;;;;;;;;;;;;;;;;4393295;32;19941;-70
2022/05/03 14:47:53;;;;;;;;;;;;;;;;;;4406641;32;19937;-69
2022/05/03 14:50:18;;;;;;;;;;;;;;;;;;4392536;32;19937;-69
2022/05/03 14:52:43;;;;;;;;;;;;;;;;;;4406315;32;19941;-69
2022/05/03 14:55:08;;;;;;;;;;;;;;;;;;4392280;32;19941;-70
2022/05/03 15:03:03;;;;;;;;;;;;;;;;;;4407442;32;20014;-71
2022/05/03 15:05:28;;;;;;;;;;;;;;;;;;4406641;32;19945;-71
2022/05/03 15:07:53;;;;;;;;;;;;;;;;;;4392484;32;20285;-69
2022/05/03 15:10:18;;;;;;;;;;;;;;;;;;4406093;32;19983;-70
2022/05/03 15:12:43;;;;;;;;;;;;;;;;;;4406295;32;19941;-70
2022/05/03 15:15:09;;;;;;;;;;;;;;;;;;4407843;32;19941;-70
2022/05/03 15:17:34;;;;;;;;;;;;;;;;;;4392380;32;19934;-70
2022/05/03 15:19:59;;;;;;;;;;;;;;;;;;4377638;32;19946;-71
2022/05/03 15:24:35;;;;;;;;;;;;;;;;;;4386013;32;19993;-70
2022/05/03 15:25:09;;;;;;;;;;;;;;;;;;4390079;32;20316;-70
2022/05/03 15:27:34;;;;;;;;;;;;;;;;;;4390641;32;20300;-70
2022/05/03 15:29:59;;;;;;;;;;;;;;;;;;4393101;32;20328;-70
2022/05/03 15:32:24;;;;;;;;;;;;;;;;;;4407171;32;20067;-70
2022/05/03 15:34:49;;;;;;;;;;;;;;;;;;4391498;32;19945;-70
2022/05/03 15:37:14;;;;;;;;;;;;;;;;;;4391458;32;19937;-70
2022/05/03 15:39:39;;;;;;;;;;;;;;;;;;4391245;32;19976;-70
2022/05/03 15:42:07;;;;;;;;;;;;;;;;;;4393350;32;19997;-71
2022/05/03 15:44:32;;;;;;;;;;;;;;;;;;4405725;32;20000;-71
2022/05/03 15:46:57;;;;;;;;;;;;;;;;;;4394186;32;19938;-70
2022/05/03 15:49:23;;;;;;;;;;;;;;;;;;4390789;32;19934;-69
2022/05/03 15:51:50;;;;;;;;;;;;;;;;;;4390308;32;19957;-70
2022/05/03 15:54:15;;;;;;;;;;;;;;;;;;4394843;32;19933;-70
2022/05/03 15:56:40;;;;;;;;;;;;;;;;;;4392415;32;19973;-70
2022/05/03 15:59:05;;;;;;;;;;;;;;;;;;4407149;32;19952;-70
2022/05/03 16:01:30;;;;;;;;;;;;;;;;;;4406846;32;19983;-71
2022/05/03 16:03:55;;;;;;;;;;;;;;;;;;4392768;32;19943;-70
2022/05/03 16:06:21;;;;;;;;;;;;;;;;;;4405491;32;20334;-71
2022/05/03 16:08:46;;;;;;;;;;;;;;;;;;4405557;32;19945;-70
2022/05/03 16:11:11;;;;;;;;;;;;;;;;;;4404295;32;19969;-70
2022/05/03 16:13:36;;;;;;;;;;;;;;;;;;4404583;32;19937;-70
2022/05/03 16:16:01;;;;;;;;;;;;;;;;;;4391910;32;19983;-70
2022/05/03 16:18:26;;;;;;;;;;;;;;;;;;4406098;32;20330;-70
2022/05/03 16:20:54;;;;;;;;;;;;;;;;;;4406890;32;20255;-70
2022/05/03 16:23:19;;;;;;;;;;;;;;;;;;4391465;32;19960;-70
2022/05/03 16:25:44;;;;;;;;;;;;;;;;;;4404472;32;19960;-69
2022/05/03 16:28:10;;;;;;;;;;;;;;;;;;4389395;32;19970;-69
2022/05/03 16:30:35;;;;;;;;;;;;;;;;;;4404118;32;20295;-70
2022/05/03 16:33:00;;;;;;;;;;;;;;;;;;4406674;32;19947;-70
2022/05/03 16:35:25;;;;;;;;;;;;;;;;;;4391141;32;19985;-70
2022/05/03 16:43:18;;;;;;;;;;;;;;;;;;4405388;32;19963;-70
2022/05/03 16:45:43;;;;;;;;;;;;;;;;;;4400954;32;19997;-70
2022/05/03 16:48:08;;;;;;;;;;;;;;;;;;4383358;32;20312;-70
2022/05/03 16:50:33;;;;;;;;;;;;;;;;;;4362220;32;19938;-70
2022/05/03 16:52:59;;;;;;;;;;;;;;;;;;4376386;32;19980;-71
2022/05/03 16:55:24;;;;;;;;;;;;;;;;;;4374567;32;19986;-70
2022/05/03 16:57:49;;;;;;;;;;;;;;;;;;4376636;32;20225;-69
2022/05/03 17:00:14;;;;;;;;;;;;;;;;;;4375195;32;19960;-71
2022/05/03 17:02:39;;;;;;;;;;;;;;;;;;4375116;32;19967;-70
2022/05/03 17:05:04;;;;;;;;;;;;;;;;;;4381663;32;19983;-70
2022/05/03 17:07:29;;;;;;;;;;;;;;;;;;4390235;32;19937;-70
2022/05/03 17:09:54;;;;;;;;;;;;;;;;;;4388799;32;19994;-70
2022/05/03 17:12:20;;;;;;;;;;;;;;;;;;4386791;32;19942;-70
2022/05/03 17:14:45;;;;;;;;;;;;;;;;;;4362321;32;19941;-70
2022/05/03 17:17:10;;;;;;;;;;;;;;;;;;4361855;32;20008;-69
2022/05/03 17:19:36;;;;;;;;;;;;;;;;;;4361732;32;20274;-70
2022/05/03 17:22:01;;;;;;;;;;;;;;;;;;4373836;32;19934;-69
2022/05/03 17:24:26;;;;;;;;;;;;;;;;;;4393757;32;19949;-70
2022/05/03 17:26:51;;;;;;;;;;;;;;;;;;4391823;32;19956;-70